Time;durP1;ratioP1;P1;durP2;ratioP2;P2;SDS_P1;SDS_P2;PMS_P1;PMS_P2;Temp;Humidity;BMP_temperature;BMP_pressure;BME280_temperature;BME280_humidity;BME280_pressure;Samples;Min_cycle;Max_cycle;Signal;HPM_P1;HPM_P2
2022/07/28 00:02:19;;;;;;;3.42;1.23;;;17.30;98.20;;;;;;4950038;28;20126;-53
2022/07/28 00:04:46;;;;;;;5.05;1.33;;;17.30;98.10;;;;;;4949858;28;20055;-52
2022/07/28 00:07:13;;;;;;;1.83;0.80;;;17.30;98.20;;;;;;4949421;29;20438;-56
2022/07/28 00:09:40;;;;;;;2.60;1.02;;;17.20;98.30;;;;;;4950296;28;20582;-53
2022/07/28 00:12:07;;;;;;;2.55;1.38;;;17.20;98.40;;;;;;4949732;28;20557;-54
2022/07/28 00:14:33;;;;;;;4.72;1.38;;;17.20;98.60;;;;;;4949660;28;20094;-50
2022/07/28 00:17:00;;;;;;;6.10;1.80;;;17.20;98.60;;;;;;4950235;28;20086;-50
2022/07/28 00:19:27;;;;;;;2.35;0.90;;;17.20;98.70;;;;;;4949987;28;20106;-52
2022/07/28 00:21:54;;;;;;;5.20;1.23;;;17.20;98.80;;;;;;4949878;28;20126;-51
2022/07/28 00:24:22;;;;;;;10.10;1.23;;;17.20;98.90;;;;;;4949324;28;20053;-52
2022/07/28 00:26:49;;;;;;;5.93;1.05;;;17.20;98.90;;;;;;4607050;28;10001524;-52
2022/07/28 00:29:16;;;;;;;3.67;1.08;;;17.10;99.00;;;;;;4951432;28;20158;-52
2022/07/28 00:31:43;;;;;;;2.17;0.95;;;17.10;99.00;;;;;;4953518;28;20043;-54
2022/07/28 00:34:10;;;;;;;5.82;1.75;;;17.10;99.10;;;;;;4953740;28;20098;-57
2022/07/28 00:36:38;;;;;;;3.33;1.17;;;17.20;99.20;;;;;;4953500;28;20043;-58
2022/07/28 00:39:04;;;;;;;1.73;1.00;;;17.10;99.20;;;;;;4953881;28;20054;-53
2022/07/28 00:41:31;;;;;;;5.20;1.30;;;17.10;99.30;;;;;;4953396;28;20043;-53
2022/07/28 00:43:58;;;;;;;8.20;1.27;;;17.10;99.30;;;;;;4953672;28;20106;-54
2022/07/28 00:46:25;;;;;;;10.60;1.25;;;17.00;99.50;;;;;;4953173;28;20062;-56
2022/07/28 00:48:53;;;;;;;4.68;1.00;;;17.10;99.60;;;;;;4953364;28;20511;-56
2022/07/28 00:51:21;;;;;;;3.20;1.00;;;17.10;99.70;;;;;;4953223;28;20055;-55
2022/07/28 00:53:48;;;;;;;7.63;1.63;;;17.00;99.80;;;;;;4953181;28;20075;-54
2022/07/28 00:56:14;;;;;;;2.85;0.98;;;17.00;99.80;;;;;;4953296;28;20122;-54
2022/07/28 00:58:41;;;;;;;3.85;1.00;;;17.00;99.90;;;;;;4953089;28;20089;-53
2022/07/28 01:01:09;;;;;;;9.00;1.25;;;17.00;99.90;;;;;;4953010;28;20082;-53
2022/07/28 01:03:40;;;;;;;9.82;2.00;;;16.90;99.90;;;;;;4953138;28;20106;-52
2022/07/28 01:06:16;;;;;;;2.97;1.05;;;17.00;99.90;;;;;;4940919;29;20131;-51
2022/07/28 01:08:53;;;;;;;4.28;1.08;;;16.90;99.90;;;;;;4952991;28;20086;-52
2022/07/28 01:11:35;;;;;;;4.57;0.90;;;16.90;99.90;;;;;;4942254;29;20134;-53
2022/07/28 01:14:16;;;;;;;3.80;1.15;;;16.80;99.90;;;;;;4952941;28;20134;-55
2022/07/28 01:17:09;;;;;;;3.80;1.25;;;16.90;99.90;;;;;;4951444;29;20483;-50
2022/07/28 01:19:45;;;;;;;2.75;0.93;;;16.80;99.90;;;;;;4951555;29;20127;-51
2022/07/28 01:22:20;;;;;;;1.67;1.13;;;16.80;99.90;;;;;;4951474;29;20134;-53
2022/07/28 01:25:01;;;;;;;3.53;1.13;;;16.80;99.90;;;;;;4950465;29;20051;-53
2022/07/28 01:27:46;;;;;;;4.55;1.40;;;16.80;99.90;;;;;;4951030;29;20519;-54
2022/07/28 01:30:29;;;;;;;4.30;1.10;;;16.80;99.90;;;;;;4948656;29;20078;-50
2022/07/28 01:33:09;;;;;;;2.08;1.27;;;16.80;99.90;;;;;;4951043;29;20175;-48
2022/07/28 01:35:46;;;;;;;6.20;1.90;;;16.80;99.90;;;;;;4932205;29;20128;-51
2022/07/28 01:38:13;;;;;;;6.55;1.60;;;16.80;99.90;;;;;;4948263;28;20537;-52
2022/07/28 01:40:42;;;;;;;3.35;1.05;;;16.70;99.90;;;;;;4951092;29;20078;-50
2022/07/28 01:43:13;;;;;;;3.65;0.90;;;16.70;99.90;;;;;;4950807;29;20050;-52
2022/07/28 01:45:40;;;;;;;2.95;1.20;;;16.70;99.90;;;;;;4949061;29;20051;-50
2022/07/28 01:48:06;;;;;;;2.85;1.67;;;16.70;99.90;;;;;;4950902;29;20078;-52
2022/07/28 01:50:33;;;;;;;3.83;0.90;;;16.70;99.90;;;;;;4934414;29;20142;-52
2022/07/28 01:53:00;;;;;;;3.30;1.25;;;16.70;99.90;;;;;;4950753;29;20386;-53
2022/07/28 01:55:27;;;;;;;8.20;1.20;;;16.70;99.90;;;;;;4950541;29;20098;-50
2022/07/28 01:57:54;;;;;;;3.55;1.10;;;16.70;99.90;;;;;;4950491;29;20554;-51
2022/07/28 02:00:21;;;;;;;4.22;1.10;;;16.80;99.90;;;;;;4951692;28;20094;-52
2022/07/28 02:02:48;;;;;;;5.70;1.00;;;16.80;99.90;;;;;;4951712;28;20058;-50
2022/07/28 02:05:15;;;;;;;2.88;1.10;;;16.80;99.90;;;;;;4950533;29;20089;-53
2022/07/28 02:07:46;;;;;;;2.55;0.90;;;16.80;99.90;;;;;;4935358;29;20039;-50
2022/07/28 02:10:14;;;;;;;3.72;1.48;;;16.80;99.90;;;;;;4934417;29;20538;-52
2022/07/28 02:12:41;;;;;;;4.90;1.20;;;16.80;99.90;;;;;;4950106;29;20538;-53
2022/07/28 02:15:10;;;;;;;5.60;1.75;;;16.80;99.90;;;;;;4931159;29;20134;-54
2022/07/28 02:17:37;;;;;;;5.63;1.40;;;16.90;99.90;;;;;;4943577;29;20669;-51
2022/07/28 02:20:04;;;;;;;3.80;1.20;;;16.80;99.90;;;;;;4950216;29;20481;-52
2022/07/28 02:22:31;;;;;;;7.05;1.35;;;16.90;99.90;;;;;;4951669;28;20239;-53
2022/07/28 02:24:58;;;;;;;4.90;1.90;;;16.90;99.90;;;;;;4950232;28;20138;-54
2022/07/28 02:27:34;;;;;;;6.13;1.25;;;16.90;99.90;;;;;;4949527;29;20482;-49
2022/07/28 02:30:06;;;;;;;2.10;1.05;;;16.80;99.90;;;;;;4948874;29;20077;-53
2022/07/28 02:32:48;;;;;;;2.83;1.30;;;16.80;99.90;;;;;;4931815;29;20140;-51
2022/07/28 02:35:30;;;;;;;1.75;0.95;;;16.80;99.90;;;;;;4949759;29;20121;-51
2022/07/28 02:38:03;;;;;;;3.13;1.40;;;16.80;99.90;;;;;;4940589;29;20054;-53
2022/07/28 02:40:33;;;;;;;4.25;1.00;;;16.80;99.90;;;;;;4949736;29;20142;-53
2022/07/28 02:43:00;;;;;;;2.10;1.23;;;16.90;99.90;;;;;;4939441;29;20586;-53
2022/07/28 02:45:27;;;;;;;3.80;1.55;;;16.90;99.90;;;;;;4949849;29;20944;-51
2022/07/28 02:47:57;;;;;;;2.83;1.13;;;16.90;99.90;;;;;;4949629;28;20327;-52
2022/07/28 02:50:25;;;;;;;6.03;1.38;;;16.80;99.90;;;;;;4944845;28;20079;-52
2022/07/28 02:52:57;;;;;;;7.55;1.38;;;16.80;99.90;;;;;;4947343;28;20098;-53
2022/07/28 02:55:23;;;;;;;7.90;1.52;;;16.90;99.90;;;;;;4950644;29;20562;-51
2022/07/28 02:57:51;;;;;;;3.40;1.30;;;16.80;99.90;;;;;;4950396;29;20105;-55
2022/07/28 03:00:22;;;;;;;8.13;1.67;;;16.80;99.90;;;;;;4930266;29;20172;-56
2022/07/28 03:02:49;;;;;;;4.32;2.03;;;16.80;99.90;;;;;;4947964;29;20051;-54
2022/07/28 03:05:16;;;;;;;3.25;1.10;;;16.80;99.90;;;;;;4949501;29;20085;-52
2022/07/28 03:07:43;;;;;;;5.85;1.33;;;16.80;99.90;;;;;;4949495;29;20236;-56
2022/07/28 03:10:26;;;;;;;;;;;16.80;99.90;;;;;;4940253;29;20057;-53
2022/07/28 03:12:59;;;;;;;3.97;1.30;;;16.80;99.90;;;;;;4950317;28;19923;-53
2022/07/28 03:15:26;;;;;;;9.07;1.42;;;16.80;99.90;;;;;;4949406;29;20050;-52
2022/07/28 03:17:53;;;;;;;2.85;1.38;;;16.80;99.90;;;;;;4950511;28;20083;-52
2022/07/28 03:20:20;;;;;;;4.38;1.40;;;16.90;99.90;;;;;;4950484;28;20126;-53
2022/07/28 03:22:47;;;;;;;5.53;1.30;;;16.90;99.90;;;;;;4950391;28;20134;-53
2022/07/28 03:25:19;;;;;;;7.30;1.35;;;16.90;99.90;;;;;;4950625;28;20333;-54
2022/07/28 03:27:47;;;;;;;6.22;1.15;;;16.90;99.90;;;;;;4933451;29;20075;-54
2022/07/28 03:30:16;;;;;;;5.53;1.45;;;16.90;99.90;;;;;;4949032;29;20091;-52
2022/07/28 03:32:49;;;;;;;3.10;1.60;;;16.90;99.90;;;;;;4950131;28;20057;-52
2022/07/28 03:35:16;;;;;;;8.95;1.60;;;16.90;99.90;;;;;;4931576;29;20087;-51
2022/07/28 03:37:58;;;;;;;7.38;1.20;;;16.90;99.90;;;;;;4945436;29;20082;-52
2022/07/28 03:40:27;;;;;;;5.90;1.48;;;16.90;99.90;;;;;;4949822;28;20085;-53
2022/07/28 03:42:55;;;;;;;7.97;2.55;;;16.90;99.90;;;;;;4945650;29;20047;-55
2022/07/28 03:45:22;;;;;;;3.00;1.27;;;16.80;99.90;;;;;;4933402;29;20134;-52
2022/07/28 03:47:54;;;;;;;2.03;1.08;;;16.80;99.90;;;;;;4929663;29;20555;-53
2022/07/28 03:50:25;;;;;;;1.90;0.98;;;16.80;99.90;;;;;;4950075;28;20138;-53
2022/07/28 03:52:52;;;;;;;3.33;1.15;;;16.80;99.90;;;;;;4949654;28;20290;-54
2022/07/28 03:55:19;;;;;;;5.00;1.33;;;16.80;99.90;;;;;;4950129;28;20070;-54
2022/07/28 03:57:46;;;;;;;6.38;1.95;;;16.80;99.90;;;;;;4949382;28;20079;-51
2022/07/28 04:00:16;;;;;;;3.20;1.83;;;16.80;99.90;;;;;;4949843;28;20460;-54
2022/07/28 04:02:43;;;;;;;3.45;1.20;;;16.80;99.90;;;;;;4951775;29;20077;-52
2022/07/28 04:05:14;;;;;;;5.93;1.08;;;16.70;99.90;;;;;;4952272;29;20391;-54
2022/07/28 04:07:41;;;;;;;5.95;1.35;;;16.80;99.90;;;;;;4953870;28;20051;-55
2022/07/28 04:10:10;;;;;;;5.28;1.45;;;16.70;99.90;;;;;;4954061;29;20082;-54
2022/07/28 04:12:51;;;;;;;5.97;1.10;;;16.70;99.90;;;;;;4953546;28;20577;-53
2022/07/28 04:15:18;;;;;;;3.65;1.15;;;16.70;99.90;;;;;;4951548;29;20091;-55
2022/07/28 04:17:47;;;;;;;4.38;1.23;;;16.70;99.90;;;;;;4954006;28;20129;-50
2022/07/28 04:20:15;;;;;;;9.00;2.35;;;16.70;99.90;;;;;;4954103;28;20043;-52
2022/07/28 04:22:43;;;;;;;4.15;1.42;;;16.70;99.90;;;;;;4953676;28;20075;-50
2022/07/28 04:25:11;;;;;;;8.23;1.45;;;16.70;99.90;;;;;;4952388;29;20075;-51
2022/07/28 04:27:39;;;;;;;4.28;1.20;;;16.60;99.90;;;;;;4953094;28;20471;-50
2022/07/28 04:30:07;;;;;;;3.95;1.88;;;16.70;99.90;;;;;;4953357;28;20462;-54
2022/07/28 04:32:37;;;;;;;4.68;1.20;;;16.60;99.90;;;;;;4953350;28;20422;-51
2022/07/28 04:35:05;;;;;;;3.72;1.40;;;16.60;99.90;;;;;;4945173;29;20138;-54
2022/07/28 04:37:32;;;;;;;5.45;1.20;;;16.60;99.90;;;;;;4952228;29;20397;-53
2022/07/28 04:39:59;;;;;;;2.78;1.30;;;16.60;99.90;;;;;;4953313;28;20085;-54
2022/07/28 04:42:25;;;;;;;5.78;2.38;;;16.60;99.90;;;;;;4953119;28;20086;-52
2022/07/28 04:44:52;;;;;;;9.70;2.50;;;16.60;99.90;;;;;;4953249;28;20062;-53
2022/07/28 04:47:19;;;;;;;3.65;1.25;;;16.60;99.90;;;;;;4953331;28;20130;-52
2022/07/28 04:49:46;;;;;;;4.40;0.90;;;16.60;99.90;;;;;;4952941;28;20098;-51
2022/07/28 04:52:13;;;;;;;9.63;1.42;;;16.50;99.90;;;;;;4952950;28;20094;-52
2022/07/28 04:54:39;;;;;;;3.72;1.27;;;16.60;99.90;;;;;;4951635;29;20490;-53
2022/07/28 04:57:07;;;;;;;7.57;1.33;;;16.60;99.90;;;;;;4952868;28;20130;-54
2022/07/28 04:59:38;;;;;;;6.05;1.85;;;16.60;99.90;;;;;;4952491;28;20047;-54
2022/07/28 05:02:05;;;;;;;3.38;1.00;;;16.60;99.90;;;;;;4952956;28;20043;-54
2022/07/28 05:04:32;;;;;;;6.80;1.48;;;16.60;99.90;;;;;;4952489;28;20138;-55
2022/07/28 05:07:00;;;;;;;8.00;1.45;;;16.60;99.90;;;;;;4952682;28;20667;-53
2022/07/28 05:09:33;;;;;;;3.60;1.48;;;16.60;99.90;;;;;;4952478;28;20081;-54
2022/07/28 05:12:00;;;;;;;6.00;1.40;;;16.60;99.90;;;;;;4951794;28;20082;-54
2022/07/28 05:14:27;;;;;;;6.68;1.55;;;16.60;99.90;;;;;;4952555;28;20138;-52
2022/07/28 05:16:54;;;;;;;4.55;1.60;;;16.60;99.90;;;;;;4952463;28;20130;-53
2022/07/28 05:19:20;;;;;;;6.32;1.65;;;16.50;99.90;;;;;;4952382;28;20047;-53
2022/07/28 05:21:47;;;;;;;8.85;1.50;;;16.50;99.90;;;;;;4950920;29;20138;-53
2022/07/28 05:24:14;;;;;;;7.05;2.28;;;16.50;99.90;;;;;;4952231;28;20089;-54
2022/07/28 05:26:41;;;;;;;4.50;1.48;;;16.60;99.90;;;;;;4952110;28;20066;-53
2022/07/28 05:29:08;;;;;;;3.35;2.10;;;16.60;99.90;;;;;;4952069;28;20086;-54
2022/07/28 05:31:35;;;;;;;5.03;1.13;;;16.60;99.90;;;;;;4951988;28;20082;-51
2022/07/28 05:34:02;;;;;;;11.05;1.40;;;16.60;99.90;;;;;;4952393;28;20051;-54
2022/07/28 05:36:28;;;;;;;7.95;1.92;;;16.70;99.90;;;;;;4951765;28;20549;-51
2022/07/28 05:38:55;;;;;;;6.38;1.20;;;16.70;99.90;;;;;;4952053;28;20069;-54
2022/07/28 05:41:22;;;;;;;5.13;1.58;;;16.70;99.90;;;;;;4951796;28;20134;-52
2022/07/28 05:43:49;;;;;;;4.40;1.10;;;16.70;99.90;;;;;;4950841;29;20170;-52
2022/07/28 05:46:15;;;;;;;6.13;1.40;;;16.70;99.90;;;;;;4951778;28;20498;-55
2022/07/28 05:48:42;;;;;;;12.52;3.17;;;16.70;99.90;;;;;;4952059;28;20061;-54
2022/07/28 05:51:09;;;;;;;10.30;1.70;;;16.70;99.90;;;;;;4951934;28;20039;-52
2022/07/28 05:53:36;;;;;;;9.45;1.45;;;16.80;99.90;;;;;;4951695;28;21068;-53
2022/07/28 05:56:03;;;;;;;13.60;1.67;;;16.80;99.90;;;;;;4951952;28;20138;-54
2022/07/28 05:58:30;;;;;;;5.93;1.42;;;16.80;99.90;;;;;;4952122;28;20079;-53
2022/07/28 06:00:58;;;;;;;9.23;1.85;;;16.90;99.90;;;;;;4950164;29;20051;-53
2022/07/28 06:03:26;;;;;;;13.18;2.72;;;17.00;99.90;;;;;;4951457;28;20047;-52
2022/07/28 06:05:55;;;;;;;7.13;2.00;;;17.10;99.90;;;;;;4951470;28;20102;-51
2022/07/28 06:08:41;;;;;;;5.00;1.50;;;17.20;99.90;;;;;;4951473;28;20134;-54
2022/07/28 06:11:10;;;;;;;8.25;2.28;;;17.20;99.90;;;;;;4951360;28;20051;-54
2022/07/28 06:13:47;;;;;;;7.93;1.27;;;17.30;99.90;;;;;;4951541;28;20051;-52
2022/07/28 06:16:14;;;;;;;6.93;1.70;;;17.30;99.90;;;;;;4951409;28;20126;-55
2022/07/28 06:18:42;;;;;;;14.73;2.58;;;17.40;99.90;;;;;;4951111;28;20494;-53
2022/07/28 06:21:09;;;;;;;6.03;1.77;;;17.50;99.90;;;;;;4951589;28;20105;-55
2022/07/28 06:23:36;;;;;;;6.57;1.75;;;17.60;99.90;;;;;;4949080;28;20066;-55
2022/07/28 06:26:03;;;;;;;8.82;2.30;;;17.60;99.90;;;;;;4951211;29;20065;-55
2022/07/28 06:28:31;;;;;;;8.25;1.48;;;17.70;99.90;;;;;;4950776;28;20075;-54
2022/07/28 06:30:58;;;;;;;8.02;2.20;;;17.80;99.90;;;;;;4950898;28;20565;-55
2022/07/28 06:33:25;;;;;;;8.45;2.70;;;17.90;99.90;;;;;;4949604;29;20082;-54
2022/07/28 06:35:52;;;;;;;10.05;2.55;;;18.00;99.90;;;;;;4951278;28;20347;-53
2022/07/28 06:38:21;;;;;;;8.68;1.88;;;18.00;99.90;;;;;;4950880;28;20325;-54
2022/07/28 06:40:48;;;;;;;6.68;1.67;;;18.10;99.90;;;;;;4950860;28;20097;-52
2022/07/28 06:43:15;;;;;;;14.10;2.53;;;18.20;99.90;;;;;;4950488;28;20082;-51
2022/07/28 06:45:43;;;;;;;14.70;2.33;;;18.20;99.90;;;;;;4950642;28;20059;-54
2022/07/28 06:48:12;;;;;;;8.65;2.35;;;18.30;99.90;;;;;;4950837;28;20097;-54
2022/07/28 06:50:40;;;;;;;8.20;1.77;;;18.30;99.90;;;;;;4949726;29;20078;-53
2022/07/28 06:53:06;;;;;;;5.00;1.45;;;18.30;99.90;;;;;;4951077;28;20126;-52
2022/07/28 06:55:33;;;;;;;11.10;2.30;;;18.30;99.90;;;;;;4950376;28;20725;-54
2022/07/28 06:58:02;;;;;;;8.73;1.40;;;18.30;99.90;;;;;;4950463;28;20078;-53
2022/07/28 07:00:29;;;;;;;4.45;1.20;;;18.40;99.90;;;;;;4950736;28;20159;-54
2022/07/28 07:02:56;;;;;;;6.95;2.03;;;18.50;99.90;;;;;;4950710;28;20098;-55
2022/07/28 07:05:24;;;;;;;8.27;2.53;;;18.50;99.90;;;;;;4950429;28;20074;-53
2022/07/28 07:07:51;;;;;;;7.28;2.30;;;18.60;99.90;;;;;;4950218;28;20415;-48
2022/07/28 07:10:18;;;;;;;10.15;1.92;;;18.70;99.90;;;;;;4950216;28;20582;-50
2022/07/28 07:12:44;;;;;;;6.18;1.40;;;18.70;99.90;;;;;;4950511;28;20051;-54
2022/07/28 07:15:11;;;;;;;5.13;1.80;;;18.80;99.90;;;;;;4949969;28;20502;-54
2022/07/28 07:17:38;;;;;;;12.50;2.65;;;18.80;99.90;;;;;;4950254;28;20058;-51
2022/07/28 07:20:06;;;;;;;7.25;1.60;;;18.80;99.90;;;;;;4950191;28;20340;-53
2022/07/28 07:22:32;;;;;;;4.70;1.75;;;18.90;99.70;;;;;;4950407;28;20047;-53
2022/07/28 07:25:08;;;;;;;13.98;2.88;;;18.90;99.50;;;;;;4949754;28;20456;-52
2022/07/28 07:27:35;;;;;;;6.55;2.10;;;19.00;98.80;;;;;;4940334;29;20043;-52
2022/07/28 07:30:03;;;;;;;8.07;1.95;;;19.10;99.20;;;;;;4949893;28;20182;-54
2022/07/28 07:32:30;;;;;;;5.47;1.80;;;19.20;98.60;;;;;;4949970;28;20535;-53
2022/07/28 07:34:57;;;;;;;7.60;1.65;;;19.20;98.10;;;;;;4949437;28;20106;-52
2022/07/28 07:37:24;;;;;;;9.82;1.67;;;19.30;97.90;;;;;;4950016;28;20078;-54
2022/07/28 07:39:51;;;;;;;7.53;1.60;;;19.40;97.70;;;;;;4949826;28;20090;-54
2022/07/28 07:42:17;;;;;;;5.57;1.52;;;19.40;97.10;;;;;;4948722;29;20075;-52
2022/07/28 07:44:44;;;;;;;5.60;1.80;;;19.40;96.70;;;;;;4949909;28;20082;-54
2022/07/28 07:47:17;;;;;;;6.68;1.65;;;19.50;96.50;;;;;;4950013;28;20047;-53
2022/07/28 07:49:43;;;;;;;13.73;1.73;;;19.60;96.10;;;;;;4950001;28;20082;-57
2022/07/28 07:52:12;;;;;;;6.72;1.73;;;19.70;95.60;;;;;;4949818;28;20418;-52
2022/07/28 07:54:39;;;;;;;5.22;1.88;;;19.80;95.10;;;;;;4938117;29;20087;-54
2022/07/28 07:57:06;;;;;;;8.23;1.70;;;19.80;94.70;;;;;;4949684;28;20134;-50
2022/07/28 07:59:33;;;;;;;9.63;2.47;;;19.80;94.50;;;;;;4950065;28;20086;-55
2022/07/28 08:02:00;;;;;;;9.23;1.77;;;19.80;94.20;;;;;;4949404;28;20051;-53
2022/07/28 08:04:27;;;;;;;4.15;1.30;;;19.80;93.70;;;;;;4949700;28;20185;-53
2022/07/28 08:06:54;;;;;;;4.22;1.48;;;19.90;93.20;;;;;;4949349;28;20131;-53
2022/07/28 08:09:21;;;;;;;7.78;1.48;;;19.90;93.30;;;;;;4949705;28;20541;-53
2022/07/28 08:11:48;;;;;;;6.78;1.38;;;20.00;93.00;;;;;;4949467;28;20094;-52
2022/07/28 08:14:16;;;;;;;5.55;1.48;;;20.00;92.60;;;;;;4950080;28;20058;-54
2022/07/28 08:16:43;;;;;;;4.05;1.50;;;20.10;92.20;;;;;;4949355;28;20517;-53
2022/07/28 08:19:10;;;;;;;10.73;2.38;;;20.10;91.90;;;;;;4939194;29;20055;-51
2022/07/28 08:21:37;;;;;;;6.60;1.85;;;20.10;91.70;;;;;;4949070;28;20102;-54
2022/07/28 08:24:04;;;;;;;2.63;1.35;;;20.20;91.40;;;;;;4948584;28;20055;-53
2022/07/28 08:26:31;;;;;;;9.63;1.48;;;20.30;91.20;;;;;;4949405;29;20079;-53
2022/07/28 08:28:58;;;;;;;10.05;2.65;;;20.30;91.20;;;;;;4949546;28;20051;-52
2022/07/28 08:31:25;;;;;;;5.35;1.85;;;20.40;90.90;;;;;;4949426;28;20083;-52
2022/07/28 08:33:52;;;;;;;4.35;1.52;;;20.50;90.50;;;;;;4949899;28;20487;-54
2022/07/28 08:36:21;;;;;;;7.68;1.50;;;20.60;90.20;;;;;;4948646;29;20051;-54
2022/07/28 08:38:47;;;;;;;5.43;1.42;;;20.60;89.30;;;;;;4950034;28;20066;-49
2022/07/28 08:42:05;;;;;;;4.38;1.08;;;20.70;87.80;;;;;;4949593;28;20101;-54
2022/07/28 08:44:46;;;;;;;5.90;1.40;;;20.70;80.90;;;;;;4965443;28;20159;-55
2022/07/28 08:47:13;;;;;;;13.60;2.28;;;20.80;82.10;;;;;;4949400;28;20091;-53
2022/07/28 08:49:41;;;;;;;12.50;2.05;;;20.90;85.10;;;;;;4951743;29;20530;-55
2022/07/28 08:52:09;;;;;;;5.82;1.70;;;21.00;85.10;;;;;;4952737;29;20090;-55
2022/07/28 08:54:36;;;;;;;14.18;2.75;;;21.00;82.70;;;;;;4952856;28;20102;-52
2022/07/28 08:57:03;;;;;;;13.70;2.40;;;21.00;83.30;;;;;;4951533;29;20130;-53
2022/07/28 08:59:29;;;;;;;10.27;1.70;;;21.10;82.20;;;;;;4952934;28;20058;-51
2022/07/28 09:01:56;;;;;;;5.45;1.63;;;21.10;81.40;;;;;;4951460;29;20135;-53
2022/07/28 09:04:24;;;;;;;6.40;1.83;;;21.10;80.70;;;;;;4951567;29;20499;-51
2022/07/28 09:06:51;;;;;;;16.08;3.05;;;21.20;75.00;;;;;;4935624;29;20551;-55
2022/07/28 09:09:20;;;;;;;5.30;1.15;;;21.30;78.40;;;;;;4952589;28;20070;-52
2022/07/28 09:11:47;;;;;;;5.85;2.28;;;21.30;78.20;;;;;;4951052;29;20081;-50
2022/07/28 09:14:14;;;;;;;4.32;1.00;;;21.40;76.90;;;;;;4952474;28;20233;-49
2022/07/28 09:16:41;;;;;;;7.38;1.40;;;21.40;75.80;;;;;;4952515;28;20063;-54
2022/07/28 09:19:08;;;;;;;6.65;1.55;;;21.50;76.00;;;;;;4952240;28;20485;-54
2022/07/28 09:21:34;;;;;;;6.28;1.65;;;21.60;75.60;;;;;;4952473;28;20138;-52
2022/07/28 09:24:01;;;;;;;5.03;1.20;;;21.70;73.80;;;;;;4950693;29;20079;-53
2022/07/28 09:26:28;;;;;;;7.18;2.20;;;21.80;74.60;;;;;;4952240;28;20226;-53
2022/07/28 09:28:56;;;;;;;11.52;2.17;;;21.90;74.10;;;;;;4950700;29;20055;-52
2022/07/28 09:31:24;;;;;;;10.02;1.80;;;22.00;72.80;;;;;;4951069;29;20304;-51
2022/07/28 09:33:57;;;;;;;9.63;1.88;;;22.10;73.60;;;;;;4952289;28;20055;-55
2022/07/28 09:36:24;;;;;;;9.10;1.87;;;22.10;71.50;;;;;;4949371;29;20043;-53
2022/07/28 09:38:50;;;;;;;8.23;2.05;;;22.10;72.50;;;;;;4950784;29;20086;-53
2022/07/28 09:41:20;;;;;;;9.77;1.95;;;22.10;71.50;;;;;;4951965;29;20118;-55
2022/07/28 09:43:48;;;;;;;11.68;3.13;;;22.00;71.20;;;;;;4952028;28;20097;-53
2022/07/28 09:46:22;;;;;;;16.85;2.92;;;22.10;71.20;;;;;;4951829;28;20086;-53
2022/07/28 09:48:49;;;;;;;5.85;1.95;;;22.10;70.10;;;;;;4951551;28;20047;-50
2022/07/28 09:51:27;;;;;;;7.65;1.50;;;22.10;69.20;;;;;;4951651;28;20062;-55
2022/07/28 09:54:14;;;;;;;6.32;1.50;;;22.20;69.90;;;;;;4951823;28;20088;-56
2022/07/28 09:56:43;;;;;;;2.85;1.77;;;22.20;64.80;;;;;;4952111;28;20059;-54
2022/07/28 09:59:10;;;;;;;8.45;1.95;;;22.20;68.20;;;;;;4951739;28;20050;-53
2022/07/28 10:02:01;;;;;;;3.10;1.45;;;22.20;67.60;;;;;;4951676;28;20048;-53
2022/07/28 10:04:36;;;;;;;14.73;3.08;;;22.30;62.00;;;;;;4951319;29;20043;-53
2022/07/28 10:07:10;;;;;;;4.60;1.58;;;22.30;64.10;;;;;;4951380;28;20490;-55
2022/07/28 10:09:37;;;;;;;2.15;1.02;;;22.40;64.10;;;;;;4951641;28;20062;-56
2022/07/28 10:12:14;;;;;;;6.45;0.98;;;22.40;65.10;;;;;;4950852;28;20482;-55
2022/07/28 10:14:41;;;;;;;9.18;1.90;;;22.50;63.90;;;;;;4951352;28;20130;-55
2022/07/28 10:17:09;;;;;;;7.90;1.20;;;22.70;65.80;;;;;;4951487;28;20125;-56
2022/07/28 10:19:36;;;;;;;5.68;1.42;;;22.80;65.50;;;;;;4950138;29;20102;-54
2022/07/28 10:22:03;;;;;;;4.90;1.20;;;22.90;65.10;;;;;;4951844;28;20126;-53
2022/07/28 10:24:30;;;;;;;12.98;1.92;;;23.10;65.10;;;;;;4949729;29;20392;-52
2022/07/28 10:26:57;;;;;;;13.13;2.70;;;23.20;64.60;;;;;;4949801;29;20107;-53
2022/07/28 10:29:24;;;;;;;4.35;1.40;;;23.30;64.90;;;;;;4951219;28;20501;-53
2022/07/28 10:31:53;;;;;;;14.43;2.20;;;23.50;64.10;;;;;;4950088;29;20055;-55
2022/07/28 10:34:23;;;;;;;5.00;1.63;;;23.60;63.10;;;;;;4949746;29;20074;-52
2022/07/28 10:36:53;;;;;;;6.55;2.10;;;23.40;62.40;;;;;;4951376;28;20050;-56
2022/07/28 10:39:22;;;;;;;9.85;2.25;;;23.40;63.90;;;;;;4949638;29;20078;-53
2022/07/28 10:41:48;;;;;;;11.80;1.63;;;23.40;63.60;;;;;;4949345;29;20082;-54
2022/07/28 10:44:17;;;;;;;5.82;2.53;;;23.40;63.70;;;;;;4950883;28;20134;-54
2022/07/28 10:46:45;;;;;;;8.55;1.90;;;23.40;63.70;;;;;;4949320;29;20047;-53
2022/07/28 10:49:13;;;;;;;10.65;2.40;;;23.40;61.00;;;;;;4950819;28;20130;-51
2022/07/28 10:51:45;;;;;;;4.05;1.60;;;23.20;62.50;;;;;;4950502;28;20435;-54
2022/07/28 10:55:02;;;;;;;6.93;1.60;;;23.20;63.20;;;;;;4940441;29;20348;-53
2022/07/28 10:57:29;;;;;;;9.55;2.22;;;23.20;61.40;;;;;;4948678;29;20047;-55
2022/07/28 11:00:00;;;;;;;6.97;1.90;;;23.30;64.10;;;;;;4933487;29;20066;-55
2022/07/28 11:02:52;;;;;;;8.93;2.10;;;23.40;63.30;;;;;;4948181;29;20062;-59
2022/07/28 11:05:37;;;;;;;14.85;2.60;;;23.40;63.20;;;;;;4950218;28;20065;-52
2022/07/28 11:08:17;;;;;;;13.02;2.95;;;23.50;60.90;;;;;;4950435;28;20138;-50
2022/07/28 11:10:48;;;;;;;5.03;1.55;;;23.50;61.00;;;;;;4950089;28;20043;-54
2022/07/28 11:13:23;;;;;;;9.98;2.15;;;23.50;62.30;;;;;;4950255;28;20126;-54
2022/07/28 11:15:55;;;;;;;12.30;2.00;;;23.50;62.30;;;;;;4950150;28;20066;-54
2022/07/28 11:18:23;;;;;;;6.38;2.05;;;23.50;63.60;;;;;;4929952;29;20151;-55
2022/07/28 11:20:56;;;;;;;10.25;3.05;;;23.50;63.70;;;;;;4944470;29;20082;-55
2022/07/28 11:23:46;;;;;;;10.38;2.72;;;23.50;63.50;;;;;;4949999;28;20051;-54
2022/07/28 11:26:22;;;;;;;9.60;2.50;;;23.50;63.40;;;;;;4949897;28;20506;-55
2022/07/28 11:29:07;;;;;;;7.70;1.60;;;23.50;65.30;;;;;;4949843;28;20051;-54
2022/07/28 11:31:45;;;;;;;6.75;2.30;;;23.60;64.50;;;;;;4949821;28;20074;-53
2022/07/28 11:34:20;;;;;;;13.98;3.53;;;23.60;64.90;;;;;;4943517;29;20130;-54
2022/07/28 11:37:03;;;;;;;11.07;2.28;;;23.50;64.00;;;;;;4950107;28;20043;-58
2022/07/28 11:39:30;;;;;;;9.00;2.10;;;23.30;63.50;;;;;;4949952;28;20126;-53
2022/07/28 11:42:28;;;;;;;10.57;2.55;;;23.30;65.80;;;;;;4949799;28;20090;-54
2022/07/28 11:44:57;;;;;;;12.25;2.17;;;23.20;65.70;;;;;;4949754;28;20090;-54
2022/07/28 11:47:24;;;;;;;6.95;1.90;;;23.30;66.30;;;;;;4948234;29;20086;-55
2022/07/28 11:50:10;;;;;;;6.22;2.33;;;23.40;66.20;;;;;;4949639;29;20089;-55
2022/07/28 11:52:38;;;;;;;11.73;2.58;;;23.50;64.70;;;;;;4937246;29;20529;-54
2022/07/28 11:55:05;;;;;;;7.95;2.63;;;23.50;65.80;;;;;;4949712;28;20144;-54
2022/07/28 11:57:38;;;;;;;6.57;1.90;;;23.30;66.40;;;;;;4948228;29;20095;-53
2022/07/28 12:00:06;;;;;;;15.68;3.88;;;23.20;66.30;;;;;;4950072;29;20126;-50
2022/07/28 12:02:34;;;;;;;12.40;3.08;;;23.10;67.40;;;;;;4949466;29;20055;-51
2022/07/28 12:05:02;;;;;;;6.80;2.42;;;22.90;67.90;;;;;;4949860;29;20071;-52
2022/07/28 12:07:37;;;;;;;6.82;2.20;;;22.90;68.40;;;;;;4949510;28;20051;-53
2022/07/28 12:10:27;;;;;;;10.50;2.53;;;22.90;68.50;;;;;;4949540;28;20471;-53
2022/07/28 12:13:14;;;;;;;12.23;2.95;;;23.10;68.00;;;;;;4949348;28;20062;-55
2022/07/28 12:15:41;;;;;;;15.48;2.80;;;23.30;69.30;;;;;;4949676;28;20507;-51
2022/07/28 12:18:09;;;;;;;8.10;2.60;;;23.30;69.70;;;;;;4932394;29;20141;-54
2022/07/28 12:20:43;;;;;;;7.25;2.20;;;23.30;70.80;;;;;;4941971;28;20047;-53
2022/07/28 12:23:14;;;;;;;13.65;2.90;;;23.30;71.10;;;;;;4952842;28;20047;-52
2022/07/28 12:25:44;;;;;;;24.08;3.85;;;23.30;70.60;;;;;;4952895;28;20086;-54
2022/07/28 12:28:19;;;;;;;12.57;2.88;;;23.50;70.30;;;;;;4953469;28;20043;-53
2022/07/28 12:30:48;;;;;;;6.00;3.20;;;23.60;71.20;;;;;;4953077;28;20059;-54
2022/07/28 12:33:19;;;;;;;22.15;2.83;;;23.50;71.00;;;;;;4953232;28;20111;-55
2022/07/28 12:35:50;;;;;;;10.15;3.30;;;23.50;70.80;;;;;;4953625;28;20126;-52
2022/07/28 12:38:19;;;;;;;13.45;2.42;;;23.60;71.30;;;;;;4952071;29;20151;-56
2022/07/28 12:40:46;;;;;;;9.20;2.60;;;23.50;71.30;;;;;;4951889;29;20514;-54
2022/07/28 12:43:29;;;;;;;10.07;2.40;;;23.60;71.70;;;;;;4953121;28;20051;-52
2022/07/28 12:45:56;;;;;;;20.13;3.47;;;23.60;71.20;;;;;;4952557;29;20155;-54
2022/07/28 12:48:23;;;;;;;9.00;2.08;;;23.60;71.40;;;;;;4953175;28;20129;-55
2022/07/28 12:50:50;;;;;;;26.45;3.55;;;23.60;71.80;;;;;;4953213;28;20058;-55
2022/07/28 12:53:20;;;;;;;13.10;2.78;;;23.70;71.40;;;;;;4953184;28;20496;-54
2022/07/28 12:55:47;;;;;;;12.98;3.53;;;23.70;71.50;;;;;;4952544;28;20138;-56
2022/07/28 12:58:25;;;;;;;9.68;2.38;;;23.70;71.40;;;;;;4953230;28;20067;-54
2022/07/28 13:00:52;;;;;;;7.65;2.17;;;23.80;69.70;;;;;;4952473;28;20066;-52